Time;durP1;ratioP1;P1;durP2;ratioP2;P2;SDS_P1;SDS_P2;PMS_P1;PMS_P2;Temp;Humidity;BMP_temperature;BMP_pressure;BME280_temperature;BME280_humidity;BME280_pressure;Samples;Min_cycle;Max_cycle;Signal;HPM_P1;HPM_P2
2023/02/05 00:01:56;;;;;;;46.53;15.63;;;-1.60;99.90;;;;;;5059744;28;25077;-71
2023/02/05 00:04:23;;;;;;;23.50;8.45;;;-1.60;99.90;;;;;;5059182;28;25077;-71
2023/02/05 00:06:51;;;;;;;17.52;6.18;;;-1.60;99.90;;;;;;5059347;28;25073;-71
2023/02/05 00:09:18;;;;;;;17.00;7.22;;;-1.60;99.90;;;;;;5058937;28;25120;-71
2023/02/05 00:11:45;;;;;;;10.35;4.72;;;-1.60;99.90;;;;;;5059020;28;25046;-71
2023/02/05 00:14:13;;;;;;;9.40;4.38;;;-1.60;99.90;;;;;;5058927;28;25096;-71
2023/02/05 00:16:40;;;;;;;9.90;4.32;;;-1.70;99.90;;;;;;5058895;28;25104;-71
2023/02/05 00:19:07;;;;;;;8.23;4.60;;;-1.70;99.90;;;;;;5059400;28;25052;-71
2023/02/05 00:21:34;;;;;;;10.68;5.07;;;-1.70;99.90;;;;;;5059352;28;25095;-71
2023/02/05 00:24:01;;;;;;;9.30;5.07;;;-1.70;99.90;;;;;;5058778;28;25148;-71
2023/02/05 00:26:28;;;;;;;11.45;4.60;;;-1.70;99.90;;;;;;5058908;28;25072;-71
2023/02/05 00:28:56;;;;;;;7.75;4.40;;;-1.70;99.90;;;;;;5040892;28;25052;-71
2023/02/05 00:31:24;;;;;;;10.93;5.00;;;-1.70;99.90;;;;;;5058496;28;25069;-71
2023/02/05 00:33:51;;;;;;;8.38;4.70;;;-1.80;99.90;;;;;;5041103;28;25060;-71
2023/02/05 00:36:20;;;;;;;16.73;6.38;;;-1.80;99.90;;;;;;5059092;28;25103;-71
2023/02/05 00:38:47;;;;;;;12.02;5.75;;;-1.80;99.90;;;;;;5057426;28;25086;-71
2023/02/05 00:41:15;;;;;;;13.18;6.40;;;-1.80;99.90;;;;;;5058569;28;25071;-71
2023/02/05 00:43:43;;;;;;;20.42;7.47;;;-1.80;99.90;;;;;;5040719;28;25064;-71
2023/02/05 00:46:12;;;;;;;22.33;7.47;;;-1.80;99.90;;;;;;5058470;28;25053;-71
2023/02/05 00:48:40;;;;;;;21.70;8.60;;;-1.80;99.90;;;;;;5058291;28;25110;-71
2023/02/05 00:51:08;;;;;;;17.90;6.85;;;-1.90;99.90;;;;;;5058478;28;25102;-71
2023/02/05 00:53:35;;;;;;;14.70;6.82;;;-1.90;99.90;;;;;;5058191;28;25059;-71
2023/02/05 00:56:03;;;;;;;16.10;6.50;;;-1.90;99.90;;;;;;5057677;28;25070;-71
2023/02/05 00:58:30;;;;;;;16.92;6.43;;;-1.90;99.90;;;;;;5058133;28;25113;-71
2023/02/05 01:00:58;;;;;;;13.38;6.35;;;-1.90;99.90;;;;;;5058667;28;25048;-71
2023/02/05 01:03:25;;;;;;;19.42;7.78;;;-1.90;99.90;;;;;;5058543;28;25108;-71
2023/02/05 01:05:53;;;;;;;13.52;6.00;;;-1.90;99.90;;;;;;5040410;28;25106;-71
2023/02/05 01:08:21;;;;;;;19.88;8.68;;;-1.90;99.90;;;;;;5058431;28;25070;-71
2023/02/05 01:10:49;;;;;;;18.02;6.75;;;-2.00;99.90;;;;;;5058190;28;25081;-71
2023/02/05 01:13:17;;;;;;;20.42;7.93;;;-2.00;99.90;;;;;;5040130;28;25133;-71
2023/02/05 01:15:45;;;;;;;15.57;7.10;;;-2.00;99.90;;;;;;5040288;28;25111;-71
2023/02/05 01:18:12;;;;;;;16.33;6.70;;;-2.00;99.90;;;;;;5057716;28;25049;-71
2023/02/05 01:20:41;;;;;;;13.07;5.72;;;-2.00;99.90;;;;;;5039967;28;25060;-71
2023/02/05 01:23:08;;;;;;;13.57;6.88;;;-2.00;99.90;;;;;;5057671;28;25065;-71
2023/02/05 01:25:36;;;;;;;19.52;6.93;;;-2.00;99.90;;;;;;5058266;28;25121;-71
2023/02/05 01:28:05;;;;;;;17.33;6.50;;;-2.00;99.90;;;;;;5057581;28;25084;-71
2023/02/05 01:30:33;;;;;;;12.10;5.63;;;-2.00;99.90;;;;;;5057346;28;25071;-71
2023/02/05 01:33:00;;;;;;;12.00;5.15;;;-2.00;99.90;;;;;;5057442;28;25084;-71
2023/02/05 01:35:28;;;;;;;11.63;5.30;;;-2.00;99.90;;;;;;5039713;28;25081;-71
2023/02/05 01:37:55;;;;;;;9.05;4.70;;;-2.00;99.90;;;;;;5039702;28;25098;-71
2023/02/05 01:40:22;;;;;;;10.55;5.35;;;-2.00;99.90;;;;;;5039744;28;25094;-71
2023/02/05 01:42:49;;;;;;;13.20;5.40;;;-1.90;99.90;;;;;;5057791;28;25111;-71
2023/02/05 01:45:31;;;;;;;16.40;5.10;;;-1.90;99.90;;;;;;5057260;28;25111;-71
2023/02/05 01:47:59;;;;;;;17.10;5.90;;;-1.90;99.90;;;;;;5057377;28;25056;-71
2023/02/05 01:50:31;;;;;;;10.68;5.53;;;-1.90;99.90;;;;;;5057217;28;25073;-71
2023/02/05 01:53:03;;;;;;;16.05;5.88;;;-1.80;99.90;;;;;;5056959;28;25056;-71
2023/02/05 01:55:31;;;;;;;14.73;6.45;;;-1.80;99.90;;;;;;5056970;28;25093;-71
2023/02/05 01:58:00;;;;;;;10.32;5.47;;;-1.80;99.90;;;;;;5056887;28;25055;-71
2023/02/05 02:00:27;;;;;;;10.63;5.28;;;-1.70;99.90;;;;;;5039413;28;25056;-71
2023/02/05 02:02:55;;;;;;;11.60;5.45;;;-1.70;99.90;;;;;;5056889;28;25058;-71
2023/02/05 02:05:22;;;;;;;12.23;5.45;;;-1.70;99.90;;;;;;5057379;28;25077;-71
2023/02/05 02:07:49;;;;;;;12.75;5.05;;;-1.70;99.90;;;;;;5055957;28;25101;-71
2023/02/05 02:10:18;;;;;;;11.30;5.47;;;-1.70;99.90;;;;;;5057347;28;25061;-71
2023/02/05 02:12:47;;;;;;;9.18;4.80;;;-1.70;99.90;;;;;;5057300;28;25068;-71
2023/02/05 02:15:23;;;;;;;9.27;4.70;;;-1.60;99.90;;;;;;5057034;28;25102;-71
2023/02/05 02:18:24;;;;;;;9.88;5.18;;;-1.60;99.90;;;;;;5038948;28;25113;-71
2023/02/05 02:20:45;;;;;;;8.43;3.88;;;-1.60;99.90;;;;;;5056433;28;25063;-71
2023/02/05 02:23:39;;;;;;;7.72;4.40;;;-1.60;99.90;;;;;;5056537;28;25109;-71
2023/02/05 02:26:32;;;;;;;12.40;5.10;;;-1.60;99.90;;;;;;5056630;28;25096;-71
2023/02/05 02:29:04;;;;;;;11.13;4.60;;;-1.60;99.90;;;;;;5056740;28;25074;-71
2023/02/05 02:31:41;;;;;;;9.07;4.80;;;-1.60;99.90;;;;;;5056926;28;25058;-71
2023/02/05 02:34:21;;;;;;;9.77;4.65;;;-1.50;99.90;;;;;;5056456;28;25074;-71
2023/02/05 02:37:06;;;;;;;8.40;4.07;;;-1.60;99.90;;;;;;5056908;28;25063;-71
2023/02/05 02:40:01;;;;;;;7.55;3.42;;;-1.60;99.90;;;;;;5056539;28;25111;-71
2023/02/05 02:42:41;;;;;;;8.25;3.80;;;-1.50;99.90;;;;;;5050572;28;25151;-71
2023/02/05 02:45:12;;;;;;;5.88;3.08;;;-1.50;99.90;;;;;;5038564;28;25072;-71
2023/02/05 02:47:51;;;;;;;5.53;3.20;;;-1.50;99.90;;;;;;5056259;28;25072;-71
2023/02/05 02:50:41;;;;;;;5.55;2.90;;;-1.40;99.90;;;;;;5056121;28;25099;-71
2023/02/05 02:53:20;;;;;;;6.47;2.88;;;-1.30;99.90;;;;;;5056218;28;25152;-71
2023/02/05 02:55:50;;;;;;;6.13;2.72;;;-1.20;99.90;;;;;;5056357;28;25126;-71
2023/02/05 02:58:31;;;;;;;5.57;2.78;;;-1.10;99.90;;;;;;5056676;28;25107;-71
2023/02/05 03:01:00;;;;;;;4.80;2.60;;;-1.00;99.90;;;;;;5056168;28;25082;-71
2023/02/05 03:03:32;;;;;;;4.45;2.03;;;-0.90;99.90;;;;;;5056338;28;25062;-71
2023/02/05 03:06:04;;;;;;;5.88;2.85;;;-0.90;99.90;;;;;;5056239;28;25050;-71
2023/02/05 03:08:49;;;;;;;5.15;2.78;;;-0.80;99.90;;;;;;5038311;28;25115;-71
2023/02/05 03:11:16;;;;;;;3.20;1.70;;;-0.80;99.90;;;;;;5056175;28;25060;-71
2023/02/05 03:13:45;;;;;;;5.93;2.85;;;-0.70;99.90;;;;;;5038757;28;25101;-71
2023/02/05 03:16:18;;;;;;;6.63;2.63;;;-0.70;99.90;;;;;;5056147;28;25060;-71
2023/02/05 03:18:47;;;;;;;4.53;2.30;;;-0.70;99.90;;;;;;5057735;28;25110;-71
2023/02/05 03:21:27;;;;;;;4.35;2.15;;;-0.70;99.90;;;;;;5059971;28;25082;-71
2023/02/05 03:23:55;;;;;;;4.93;2.40;;;-0.70;99.90;;;;;;5060638;28;25090;-71
2023/02/05 03:26:34;;;;;;;4.03;2.70;;;-0.70;99.90;;;;;;5059814;28;25120;-71
2023/02/05 03:29:07;;;;;;;5.85;2.00;;;-0.60;99.90;;;;;;5060254;28;25123;-71
2023/02/05 03:32:12;;;;;;;5.65;2.33;;;-0.60;99.90;;;;;;5060236;28;25084;-71
2023/02/05 03:34:51;;;;;;;6.70;2.58;;;-0.50;99.90;;;;;;5059872;28;25071;-71
2023/02/05 03:37:45;;;;;;;3.80;2.20;;;-0.40;99.90;;;;;;5060212;28;25073;-71
2023/02/05 03:40:46;;;;;;;5.22;2.00;;;-0.30;99.90;;;;;;5059847;28;25156;-71
2023/02/05 03:43:46;;;;;;;3.10;1.55;;;-0.20;99.90;;;;;;5059788;28;25125;-71
2023/02/05 03:46:40;;;;;;;3.38;1.92;;;-0.20;99.90;;;;;;5041789;28;25072;-71
2023/02/05 03:49:29;;;;;;;3.72;1.77;;;-0.20;99.90;;;;;;5041914;28;25085;-71
2023/02/05 03:52:08;;;;;;;5.68;1.98;;;-0.10;99.90;;;;;;5041681;28;25119;-71
2023/02/05 03:55:03;;;;;;;4.68;1.98;;;-0.10;99.90;;;;;;5059906;28;25063;-71
2023/02/05 03:57:46;;;;;;;4.22;2.28;;;-0.10;99.90;;;;;;5059193;28;25075;-71
2023/02/05 04:00:14;;;;;;;4.10;1.88;;;0.00;99.90;;;;;;5041486;28;25088;-71
2023/02/05 04:02:42;;;;;;;3.75;1.90;;;0.00;99.90;;;;;;5059169;28;25105;-71
2023/02/05 04:05:10;;;;;;;4.70;1.70;;;0.00;99.90;;;;;;5059653;28;25123;-71
2023/02/05 04:07:37;;;;;;;6.60;2.72;;;0.10;99.90;;;;;;5059130;28;25149;-71
2023/02/05 04:10:04;;;;;;;5.53;2.42;;;0.20;99.90;;;;;;5059467;28;25074;-71
2023/02/05 04:12:31;;;;;;;4.55;2.20;;;0.20;99.90;;;;;;5041361;28;25056;-71
2023/02/05 04:14:59;;;;;;;20.92;7.75;;;0.30;99.90;;;;;;5059135;28;25110;-71
2023/02/05 04:17:26;;;;;;;8.32;4.15;;;0.30;99.90;;;;;;5059426;28;25076;-71
2023/02/05 04:19:53;;;;;;;7.90;3.08;;;0.30;99.90;;;;;;5041182;28;25085;-71
2023/02/05 04:22:21;;;;;;;3.78;1.88;;;0.30;99.90;;;;;;5058761;28;25075;-71
2023/02/05 04:24:48;;;;;;;9.40;2.60;;;0.40;99.90;;;;;;5041273;28;25057;-71
2023/02/05 04:27:15;;;;;;;8.05;2.92;;;0.40;99.90;;;;;;5058624;28;25059;-71
2023/02/05 04:29:43;;;;;;;10.93;4.05;;;0.40;99.90;;;;;;5058220;28;25094;-71
2023/02/05 04:32:10;;;;;;;9.90;3.38;;;0.50;99.90;;;;;;5056936;28;25075;-71
2023/02/05 04:34:37;;;;;;;7.00;2.88;;;0.50;99.90;;;;;;5040742;28;25044;-71
2023/02/05 04:37:05;;;;;;;10.40;4.03;;;0.50;99.90;;;;;;5058482;28;25074;-71
2023/02/05 04:39:32;;;;;;;10.40;4.15;;;0.60;99.90;;;;;;5058521;28;25074;-71
2023/02/05 04:42:00;;;;;;;10.75;3.80;;;0.60;99.90;;;;;;5040676;28;25104;-71
2023/02/05 04:44:27;;;;;;;10.95;3.40;;;0.60;99.90;;;;;;5059135;28;25080;-71
2023/02/05 04:46:54;;;;;;;6.65;3.22;;;0.60;99.90;;;;;;5040350;28;25049;-71
2023/02/05 04:49:22;;;;;;;8.88;3.42;;;0.60;99.90;;;;;;5040630;28;25119;-71
2023/02/05 04:51:49;;;;;;;7.05;3.13;;;0.60;99.90;;;;;;5058219;28;25109;-71
2023/02/05 04:54:17;;;;;;;3.75;2.00;;;0.70;99.90;;;;;;5040681;28;25094;-71
2023/02/05 04:56:45;;;;;;;4.75;2.95;;;0.70;99.90;;;;;;5056667;28;25137;-71
2023/02/05 04:59:13;;;;;;;6.05;2.20;;;0.70;99.90;;;;;;5058183;28;25107;-71
2023/02/05 05:01:40;;;;;;;37.97;8.20;;;0.80;99.90;;;;;;5058051;28;25132;-71
2023/02/05 05:04:07;;;;;;;20.02;5.97;;;0.80;99.90;;;;;;5058221;28;25050;-71
2023/02/05 05:06:35;;;;;;;5.85;2.65;;;0.80;99.90;;;;;;5057992;28;25080;-71
2023/02/05 05:09:03;;;;;;;6.60;2.53;;;0.80;99.90;;;;;;5040316;28;25051;-71
2023/02/05 05:11:30;;;;;;;5.88;2.38;;;0.90;99.90;;;;;;5057767;28;25103;-71
2023/02/05 05:13:57;;;;;;;21.23;8.55;;;0.90;99.90;;;;;;5057842;28;25101;-71
2023/02/05 05:16:24;;;;;;;9.18;4.72;;;0.90;99.90;;;;;;5057799;28;25071;-71
2023/02/05 05:18:52;;;;;;;8.05;3.20;;;0.90;99.90;;;;;;5057770;28;25061;-71
2023/02/05 05:21:19;;;;;;;6.03;2.80;;;0.90;99.90;;;;;;5039735;28;25097;-71
2023/02/05 05:23:47;;;;;;;4.20;2.30;;;1.00;99.90;;;;;;5057654;28;25072;-71
2023/02/05 05:26:14;;;;;;;6.47;2.03;;;1.00;99.90;;;;;;5039861;28;25112;-71
2023/02/05 05:28:41;;;;;;;3.90;2.10;;;1.00;99.90;;;;;;5057768;28;25100;-71
2023/02/05 05:31:18;;;;;;;4.32;1.90;;;1.00;99.90;;;;;;5076403;28;25065;-71
2023/02/05 05:33:45;;;;;;;4.03;1.88;;;1.00;99.90;;;;;;5077471;28;25129;-71
2023/02/05 05:36:13;;;;;;;4.05;1.70;;;1.00;99.90;;;;;;5076301;28;25129;-71
2023/02/05 05:38:40;;;;;;;3.08;1.65;;;1.00;99.90;;;;;;5077535;28;25102;-71
2023/02/05 05:44:02;;;;;;;5.82;2.13;;;1.00;99.90;;;;;;5077565;28;25055;-71
2023/02/05 05:46:29;;;;;;;4.55;2.03;;;1.00;99.90;;;;;;5077509;28;25140;-71
2023/02/05 05:48:58;;;;;;;4.20;2.38;;;0.90;99.90;;;;;;5077911;28;25072;-71
2023/02/05 05:51:27;;;;;;;4.32;2.03;;;0.90;99.90;;;;;;5075943;28;25128;-71
2023/02/05 05:53:55;;;;;;;3.13;1.92;;;0.90;99.90;;;;;;5076059;28;25090;-71
2023/02/05 05:56:22;;;;;;;3.72;2.10;;;0.90;99.90;;;;;;5076939;28;25064;-71
2023/02/05 05:58:50;;;;;;;5.85;2.03;;;0.90;99.90;;;;;;5077697;28;25078;-71
2023/02/05 06:01:20;;;;;;;8.88;1.95;;;0.80;99.90;;;;;;5075861;28;25071;-71
2023/02/05 06:03:49;;;;;;;4.72;2.38;;;0.90;99.90;;;;;;5076856;28;25053;-71
2023/02/05 06:06:16;;;;;;;4.63;2.05;;;0.90;99.90;;;;;;5076870;28;25141;-71
2023/02/05 06:08:43;;;;;;;7.10;1.95;;;0.90;99.90;;;;;;5077001;28;25109;-71
2023/02/05 06:11:11;;;;;;;6.03;1.83;;;0.90;99.90;;;;;;5076844;28;25055;-71
2023/02/05 06:13:40;;;;;;;5.47;1.98;;;1.00;99.90;;;;;;5073904;28;25056;-71
2023/02/05 06:16:08;;;;;;;7.25;2.03;;;1.00;99.90;;;;;;5076974;28;25092;-71
2023/02/05 06:18:35;;;;;;;5.22;2.85;;;1.00;99.90;;;;;;5076893;28;25151;-71
2023/02/05 06:21:04;;;;;;;4.07;2.10;;;1.00;99.90;;;;;;5076635;28;25075;-71
2023/02/05 06:23:33;;;;;;;4.82;2.20;;;1.00;99.90;;;;;;5076572;28;25093;-71
2023/02/05 06:26:01;;;;;;;5.25;2.10;;;1.00;99.90;;;;;;5075363;28;25100;-71
2023/02/05 06:28:28;;;;;;;5.13;2.28;;;1.00;99.90;;;;;;5076527;28;25094;-71
2023/02/05 06:30:55;;;;;;;5.22;2.30;;;1.00;99.90;;;;;;5058324;28;25052;-71
2023/02/05 06:33:22;;;;;;;4.90;2.35;;;1.00;99.90;;;;;;5056420;28;25122;-71
2023/02/05 06:35:49;;;;;;;3.72;2.25;;;1.00;99.90;;;;;;5038772;28;25108;-71
2023/02/05 06:38:17;;;;;;;3.92;2.28;;;1.00;99.90;;;;;;5038641;28;25108;-71
2023/02/05 06:40:44;;;;;;;4.93;1.92;;;1.10;99.90;;;;;;5056526;28;25064;-71
2023/02/05 06:43:11;;;;;;;5.95;2.38;;;1.00;99.90;;;;;;5056470;28;25084;-71
2023/02/05 06:45:39;;;;;;;4.25;2.40;;;1.10;99.90;;;;;;5056445;28;25058;-71
2023/02/05 06:48:06;;;;;;;4.00;1.83;;;1.10;99.90;;;;;;5038810;28;25070;-71
2023/02/05 06:50:33;;;;;;;3.13;1.85;;;1.10;99.90;;;;;;5056476;28;25093;-69
2023/02/05 06:53:00;;;;;;;3.42;1.92;;;1.10;99.90;;;;;;5056279;28;25153;-70
2023/02/05 06:55:27;;;;;;;5.47;2.20;;;1.10;99.90;;;;;;5056800;28;25075;-70
2023/02/05 06:57:55;;;;;;;4.28;2.25;;;1.10;99.90;;;;;;5055601;28;25083;-70
2023/02/05 07:00:22;;;;;;;5.70;2.25;;;1.20;99.90;;;;;;5038517;28;25070;-70
2023/02/05 07:02:49;;;;;;;7.20;2.08;;;1.10;99.90;;;;;;5038469;28;25112;-72
2023/02/05 07:05:16;;;;;;;4.72;2.08;;;1.20;99.90;;;;;;5056299;28;25069;-70
2023/02/05 07:07:44;;;;;;;7.03;2.60;;;1.20;99.90;;;;;;5056642;28;25115;-71
2023/02/05 07:10:12;;;;;;;6.95;2.17;;;1.20;99.90;;;;;;5056531;28;25055;-71
2023/02/05 07:12:39;;;;;;;8.88;2.42;;;1.20;99.90;;;;;;5055961;28;25067;-71
2023/02/05 07:15:06;;;;;;;6.72;2.20;;;1.10;99.90;;;;;;5056420;28;25071;-71
2023/02/05 07:17:38;;;;;;;6.28;2.45;;;1.20;99.90;;;;;;5038300;28;25120;-79
2023/02/05 07:20:06;;;;;;;5.93;2.60;;;1.10;99.90;;;;;;5054922;28;25129;-80
2023/02/05 07:22:34;;;;;;;4.55;1.90;;;1.20;99.90;;;;;;5038385;28;25151;-83
2023/02/05 07:25:01;;;;;;;6.22;2.30;;;1.20;99.90;;;;;;5038361;28;25053;-85
2023/02/05 07:27:29;;;;;;;3.80;2.15;;;1.20;99.90;;;;;;5056016;28;25118;-79
2023/02/05 07:29:56;;;;;;;6.22;2.83;;;1.20;99.90;;;;;;5054110;28;25084;-83
2023/02/05 07:32:24;;;;;;;4.90;2.53;;;1.20;99.90;;;;;;5074836;28;25064;-81
2023/02/05 07:34:51;;;;;;;8.18;3.08;;;1.20;99.90;;;;;;5075016;28;25062;-80
2023/02/05 07:37:18;;;;;;;5.93;2.95;;;1.20;99.90;;;;;;5074799;28;25065;-77
2023/02/05 07:39:46;;;;;;;9.45;3.53;;;1.20;99.90;;;;;;5074818;28;25092;-77
2023/02/05 07:42:13;;;;;;;10.18;2.38;;;1.30;99.90;;;;;;5074635;28;25076;-76
2023/02/05 07:44:40;;;;;;;7.30;2.80;;;1.30;99.90;;;;;;5076360;28;25103;-77
2023/02/05 07:47:07;;;;;;;7.53;3.33;;;1.30;99.90;;;;;;5075784;28;25060;-77
2023/02/05 07:49:34;;;;;;;7.82;3.10;;;1.20;99.90;;;;;;5075793;28;25095;-76
2023/02/05 07:52:02;;;;;;;7.00;3.00;;;1.30;99.90;;;;;;5074586;28;25096;-78
2023/02/05 07:54:29;;;;;;;20.38;9.23;;;1.20;99.90;;;;;;5074599;28;25082;-77
2023/02/05 07:56:58;;;;;;;5.18;2.63;;;1.30;99.90;;;;;;5074482;28;25115;-78
2023/02/05 07:59:27;;;;;;;23.73;9.15;;;1.30;99.90;;;;;;5075165;28;25044;-78
2023/02/05 08:01:55;;;;;;;12.40;5.25;;;1.30;99.90;;;;;;5075595;28;25057;-78
2023/02/05 08:04:22;;;;;;;7.03;3.15;;;1.30;99.90;;;;;;5074544;28;25053;-78
2023/02/05 08:06:49;;;;;;;7.22;3.80;;;1.30;99.90;;;;;;5078507;28;25073;-70
2023/02/05 08:09:16;;;;;;;6.07;3.22;;;1.30;99.90;;;;;;5079187;28;25072;-69
2023/02/05 08:11:44;;;;;;;7.95;3.40;;;1.30;99.90;;;;;;5077819;28;25049;-69
2023/02/05 08:14:12;;;;;;;6.85;3.80;;;1.30;99.90;;;;;;5079088;28;25062;-69
2023/02/05 08:16:39;;;;;;;5.05;2.72;;;1.30;99.90;;;;;;5078997;28;25052;-69
2023/02/05 08:19:13;;;;;;;5.05;3.20;;;1.30;99.90;;;;;;5079699;28;25089;-69
2023/02/05 08:21:40;;;;;;;9.13;3.75;;;1.30;99.90;;;;;;5078953;28;25129;-69
2023/02/05 08:24:08;;;;;;;6.93;2.70;;;1.30;99.90;;;;;;5078906;28;25114;-71
2023/02/05 08:26:35;;;;;;;10.70;3.63;;;1.30;99.90;;;;;;5077633;28;25075;-71
2023/02/05 08:29:03;;;;;;;9.05;3.30;;;1.40;99.90;;;;;;5078524;28;25102;-72
2023/02/05 08:31:30;;;;;;;8.05;3.65;;;1.40;99.90;;;;;;5058576;28;25091;-71
2023/02/05 08:33:58;;;;;;;10.15;3.40;;;1.40;99.90;;;;;;5058641;28;25142;-71
2023/02/05 08:36:26;;;;;;;9.18;2.90;;;1.40;99.90;;;;;;5058491;28;25113;-68
2023/02/05 08:38:54;;;;;;;7.40;3.10;;;1.40;99.90;;;;;;5041363;28;25109;-72
2023/02/05 08:41:22;;;;;;;9.70;4.05;;;1.40;99.90;;;;;;5040657;28;25135;-72
2023/02/05 08:43:50;;;;;;;6.13;2.97;;;1.40;99.90;;;;;;5058957;28;25113;-71
2023/02/05 08:46:26;;;;;;;5.75;3.00;;;1.40;99.90;;;;;;5058884;28;25122;-72
2023/02/05 08:48:53;;;;;;;8.25;3.35;;;1.40;99.90;;;;;;5058791;28;25077;-72
2023/02/05 08:51:21;;;;;;;6.03;3.25;;;1.50;99.90;;;;;;5058513;28;25047;-72
2023/02/05 08:53:49;;;;;;;5.88;3.45;;;1.50;99.90;;;;;;5058886;28;25064;-72
2023/02/05 08:56:17;;;;;;;8.27;3.13;;;1.50;99.90;;;;;;5058520;28;25066;-72
2023/02/05 08:58:45;;;;;;;6.65;2.80;;;1.50;99.90;;;;;;5040527;28;25066;-72
2023/02/05 09:01:15;;;;;;;7.85;3.83;;;1.60;99.90;;;;;;5040447;28;25075;-72
2023/02/05 09:03:43;;;;;;;7.35;3.25;;;1.60;99.90;;;;;;5040628;28;25127;-72
2023/02/05 09:06:14;;;;;;;4.30;2.83;;;1.60;99.90;;;;;;5058062;28;25135;-72
2023/02/05 09:08:42;;;;;;;6.38;3.13;;;1.70;99.90;;;;;;5058037;28;25046;-72
2023/02/05 09:11:12;;;;;;;6.50;3.13;;;1.70;99.90;;;;;;5040096;28;25117;-72
2023/02/05 09:13:40;;;;;;;5.93;2.85;;;1.80;99.90;;;;;;5058203;28;25069;-72
2023/02/05 09:16:11;;;;;;;6.47;2.70;;;1.80;99.90;;;;;;5058004;28;25097;-72
2023/02/05 09:18:39;;;;;;;7.55;3.13;;;1.80;99.90;;;;;;5058138;28;25081;-72
2023/02/05 09:21:10;;;;;;;5.53;3.10;;;1.90;99.90;;;;;;5057771;28;25073;-72
2023/02/05 09:23:37;;;;;;;9.45;2.88;;;2.00;99.90;;;;;;5057912;28;25132;-72
2023/02/05 09:26:06;;;;;;;6.40;3.30;;;2.00;99.90;;;;;;5057612;28;25111;-72
2023/02/05 09:28:33;;;;;;;10.38;3.78;;;2.00;99.90;;;;;;5058187;28;25053;-72
2023/02/05 09:31:07;;;;;;;9.48;3.40;;;2.10;99.90;;;;;;5057442;28;25141;-72
2023/02/05 09:33:36;;;;;;;7.65;3.40;;;2.10;99.90;;;;;;5058008;28;25072;-72
2023/02/05 09:36:20;;;;;;;6.88;2.60;;;2.20;99.90;;;;;;5057416;28;25049;-72
2023/02/05 09:38:51;;;;;;;6.45;3.10;;;2.20;99.90;;;;;;5039696;28;25138;-72
2023/02/05 09:41:56;;;;;;;5.53;3.00;;;2.30;99.90;;;;;;5057590;28;25109;-72
2023/02/05 09:44:33;;;;;;;6.82;3.55;;;2.30;99.90;;;;;;5051814;28;25070;-72
2023/02/05 09:47:06;;;;;;;5.93;2.85;;;2.30;99.90;;;;;;5057814;28;25086;-72
2023/02/05 09:49:49;;;;;;;6.05;3.63;;;2.30;99.90;;;;;;5057408;28;25088;-72
2023/02/05 09:52:22;;;;;;;6.13;3.28;;;2.30;99.90;;;;;;5057153;28;25141;-72
2023/02/05 09:55:06;;;;;;;9.73;3.72;;;2.30;99.90;;;;;;5039447;28;25107;-72
2023/02/05 09:57:40;;;;;;;5.65;3.95;;;2.40;99.90;;;;;;5056980;28;25072;-72
2023/02/05 10:00:29;;;;;;;8.50;3.67;;;2.50;99.90;;;;;;5057487;28;25114;-72
2023/02/05 10:03:18;;;;;;;8.10;3.45;;;2.50;99.90;;;;;;5057524;28;25112;-72
2023/02/05 10:06:10;;;;;;;10.57;3.35;;;2.60;99.90;;;;;;5057225;28;25064;-72
2023/02/05 10:08:58;;;;;;;7.85;3.53;;;2.60;99.90;;;;;;5039356;28;25152;-72
2023/02/05 10:11:49;;;;;;;13.27;4.25;;;2.60;99.90;;;;;;5056838;28;25095;-73
2023/02/05 10:14:41;;;;;;;10.93;4.32;;;2.70;99.90;;;;;;5056826;28;25106;-72
2023/02/05 10:17:36;;;;;;;8.50;3.20;;;2.70;99.90;;;;;;5057008;28;25056;-72
2023/02/05 10:20:41;;;;;;;8.60;3.83;;;2.70;99.90;;;;;;5057680;28;25109;-72
2023/02/05 10:23:15;;;;;;;11.43;3.83;;;2.80;99.90;;;;;;5057224;28;25108;-72
2023/02/05 10:25:57;;;;;;;8.70;3.70;;;2.80;99.90;;;;;;5057062;28;25102;-72
2023/02/05 10:28:39;;;;;;;10.57;4.65;;;2.80;99.90;;;;;;5055953;28;25058;-72
2023/02/05 10:31:41;;;;;;;6.40;3.58;;;2.90;99.90;;;;;;5056444;28;25066;-73
2023/02/05 10:34:44;;;;;;;7.82;4.38;;;3.00;99.90;;;;;;5056794;28;25131;-72
2023/02/05 10:37:43;;;;;;;6.78;3.75;;;3.00;99.90;;;;;;5038719;28;25080;-72
2023/02/05 10:40:17;;;;;;;8.63;4.18;;;3.00;99.90;;;;;;5053858;28;25081;-72
2023/02/05 10:42:55;;;;;;;10.13;3.92;;;3.00;99.90;;;;;;5056671;28;25055;-73
2023/02/05 10:45:27;;;;;;;7.07;4.32;;;3.10;99.90;;;;;;5038688;28;25110;-72
2023/02/05 10:48:23;;;;;;;6.60;4.78;;;3.10;99.90;;;;;;5056334;28;25119;-72
2023/02/05 10:51:05;;;;;;;6.50;3.88;;;3.10;99.90;;;;;;5056760;28;25112;-73
2023/02/05 10:53:35;;;;;;;9.65;5.32;;;3.20;99.90;;;;;;5056299;28;25093;-72
2023/02/05 10:56:03;;;;;;;10.52;6.07;;;3.20;99.90;;;;;;5056158;28;25071;-73
2023/02/05 10:58:43;;;;;;;9.75;6.07;;;3.20;99.90;;;;;;5038656;28;25076;-72
2023/02/05 11:01:25;;;;;;;8.63;5.90;;;3.20;99.90;;;;;;5056161;28;25058;-72
2023/02/05 11:04:00;;;;;;;17.23;8.60;;;3.20;99.90;;;;;;5056157;28;25112;-73
2023/02/05 11:06:39;;;;;;;14.15;7.82;;;3.10;99.90;;;;;;5056576;28;25070;-73
2023/02/05 11:09:24;;;;;;;12.55;7.22;;;3.10;99.90;;;;;;5056307;28;25103;-73
2023/02/05 11:12:03;;;;;;;10.23;6.72;;;3.20;99.90;;;;;;5056006;28;25080;-72
2023/02/05 11:14:39;;;;;;;11.20;6.25;;;3.30;99.90;;;;;;5056067;28;25137;-73
2023/02/05 11:17:31;;;;;;;10.48;6.45;;;3.30;99.90;;;;;;5038357;28;25117;-73
2023/02/05 11:20:21;;;;;;;12.02;6.22;;;3.40;99.90;;;;;;5056188;28;25054;-73
2023/02/05 11:23:04;;;;;;;20.63;10.60;;;3.40;99.90;;;;;;5038222;28;25070;-72
2023/02/05 11:25:32;;;;;;;11.82;6.63;;;3.50;99.90;;;;;;5055864;28;25142;-73
2023/02/05 11:28:02;;;;;;;19.83;9.52;;;3.50;99.90;;;;;;5038264;28;25080;-72
2023/02/05 11:30:36;;;;;;;23.75;10.25;;;3.50;99.90;;;;;;5055725;28;25085;-73
2023/02/05 11:33:33;;;;;;;25.20;10.88;;;3.60;99.90;;;;;;5055875;28;25055;-73
2023/02/05 11:36:16;;;;;;;14.30;7.70;;;3.60;99.90;;;;;;5042926;28;25116;-72
2023/02/05 11:38:53;;;;;;;14.05;8.38;;;3.70;99.90;;;;;;5055802;28;25104;-73
2023/02/05 11:41:46;;;;;;;12.23;6.75;;;3.70;99.90;;;;;;5041984;28;25103;-73
2023/02/05 11:44:37;;;;;;;13.80;7.75;;;3.80;99.90;;;;;;5060121;28;25100;-73
2023/02/05 11:47:09;;;;;;;12.32;7.28;;;3.90;99.90;;;;;;5041791;28;25055;-73
2023/02/05 11:49:40;;;;;;;11.93;6.93;;;3.90;99.90;;;;;;5059542;28;25101;-73
2023/02/05 11:52:15;;;;;;;10.18;6.07;;;4.00;99.90;;;;;;5059948;28;25088;-73
2023/02/05 11:54:47;;;;;;;13.07;7.38;;;4.10;99.90;;;;;;5059597;28;25092;-73
2023/02/05 11:57:21;;;;;;;11.60;6.78;;;4.20;99.90;;;;;;5058922;28;25100;-73
2023/02/05 12:00:25;;;;;;;13.65;7.07;;;4.20;99.90;;;;;;5059940;28;25080;-73
2023/02/05 12:03:26;;;;;;;10.90;5.85;;;4.30;99.90;;;;;;5018378;28;25075;-73
2023/02/05 12:06:21;;;;;;;10.02;5.90;;;4.30;99.90;;;;;;5059196;28;25104;-73
2023/02/05 12:08:51;;;;;;;13.38;7.63;;;4.30;99.90;;;;;;5059200;28;25067;-73
2023/02/05 12:11:59;;;;;;;13.02;6.75;;;4.30;99.90;;;;;;5041239;28;25100;-73
2023/02/05 12:14:41;;;;;;;10.35;5.60;;;4.30;99.90;;;;;;5059306;28;25129;-73
2023/02/05 12:17:38;;;;;;;11.40;6.43;;;4.30;99.90;;;;;;5041318;28;25122;-73
2023/02/05 12:20:28;;;;;;;10.50;6.72;;;4.30;99.90;;;;;;5058685;28;25044;-72
2023/02/05 12:23:22;;;;;;;12.95;6.82;;;4.20;99.90;;;;;;5058887;28;25103;-73
2023/02/05 12:26:21;;;;;;;9.05;6.28;;;4.20;99.90;;;;;;5059341;28;25047;-73
2023/02/05 12:29:10;;;;;;;10.82;6.57;;;4.20;99.90;;;;;;5059101;28;25068;-73
2023/02/05 12:32:01;;;;;;;10.77;6.55;;;4.20;99.90;;;;;;5078962;28;25059;-73
2023/02/05 12:34:38;;;;;;;9.48;7.28;;;4.20;99.90;;;;;;5078931;28;25069;-73
2023/02/05 12:37:08;;;;;;;11.30;7.10;;;4.20;99.90;;;;;;5078969;28;25124;-73
2023/02/05 12:39:39;;;;;;;13.85;7.20;;;4.20;99.90;;;;;;5078940;28;25087;-73
2023/02/05 12:42:19;;;;;;;12.00;6.80;;;4.20;99.90;;;;;;5078659;28;25083;-73
2023/02/05 12:45:02;;;;;;;12.00;6.07;;;4.20;99.90;;;;;;5078695;28;25133;-73
2023/02/05 12:47:48;;;;;;;12.45;7.18;;;4.20;99.90;;;;;;5078358;28;25079;-73
2023/02/05 12:50:37;;;;;;;9.93;6.43;;;4.20;99.90;;;;;;5078784;28;25097;-73
2023/02/05 12:53:30;;;;;;;10.48;6.80;;;4.20;99.90;;;;;;5078117;28;25066;-73
2023/02/05 12:56:13;;;;;;;18.70;9.50;;;4.20;99.90;;;;;;5078809;28;25047;-73
2023/02/05 12:58:50;;;;;;;16.77;9.20;;;4.20;99.90;;;;;;5078258;28;25093;-73
2023/02/05 13:01:37;;;;;;;17.48;8.48;;;4.20;99.90;;;;;;5078751;28;25093;-73
2023/02/05 13:04:10;;;;;;;18.67;9.25;;;4.10;99.90;;;;;;5078453;28;25105;-73
2023/02/05 13:06:43;;;;;;;15.68;7.53;;;4.10;99.90;;;;;;5078577;28;25088;-73
2023/02/05 13:09:22;;;;;;;11.90;7.25;;;4.10;99.90;;;;;;5060454;28;25106;-73
2023/02/05 13:12:10;;;;;;;11.90;6.95;;;4.10;99.90;;;;;;5078058;28;25109;-73
2023/02/05 13:14:53;;;;;;;13.40;7.57;;;4.10;99.90;;;;;;5077986;28;25112;-73
2023/02/05 13:17:26;;;;;;;10.57;6.93;;;4.10;99.90;;;;;;5060120;28;25132;-73
2023/02/05 13:19:58;;;;;;;15.30;8.18;;;4.00;99.90;;;;;;5078016;28;25100;-73
2023/02/05 13:29:05;;;;;;;17.08;8.15;;;4.10;99.90;;;;;;5078152;28;25041;-73
2023/02/05 13:31:41;;;;;;;13.02;7.47;;;4.10;99.90;;;;;;5052432;28;25102;-73
2023/02/05 13:34:14;;;;;;;15.27;8.38;;;4.10;99.90;;;;;;5058174;28;25079;-73